sensor_id;sensor_type;location;lat;lon;timestamp;P1;durP1;ratioP1;P2;durP2;ratioP2
18853;SDS011;9556;49.374;19.446;2023-08-06T00:01:57;4.35;;;3.55;;
18853;SDS011;9556;49.374;19.446;2023-08-06T00:04:24;4.82;;;3.50;;
18853;SDS011;9556;49.374;19.446;2023-08-06T00:06:51;4.70;;;3.00;;
18853;SDS011;9556;49.374;19.446;2023-08-06T00:09:18;5.07;;;3.60;;
18853;SDS011;9556;49.374;19.446;2023-08-06T00:11:47;4.28;;;3.60;;
18853;SDS011;9556;49.374;19.446;2023-08-06T00:14:14;4.13;;;3.60;;
18853;SDS011;9556;49.374;19.446;2023-08-06T00:16:42;5.05;;;3.78;;
18853;SDS011;9556;49.374;19.446;2023-08-06T00:19:10;3.95;;;3.53;;
18853;SDS011;9556;49.374;19.446;2023-08-06T00:21:37;4.38;;;3.55;;
18853;SDS011;9556;49.374;19.446;2023-08-06T00:24:05;4.85;;;3.60;;
18853;SDS011;9556;49.374;19.446;2023-08-06T00:26:32;4.97;;;3.80;;
18853;SDS011;9556;49.374;19.446;2023-08-06T00:29:00;5.13;;;3.70;;
18853;SDS011;9556;49.374;19.446;2023-08-06T00:31:27;4.40;;;3.53;;
18853;SDS011;9556;49.374;19.446;2023-08-06T00:33:55;5.28;;;3.88;;
18853;SDS011;9556;49.374;19.446;2023-08-06T00:36:22;4.68;;;3.60;;
18853;SDS011;9556;49.374;19.446;2023-08-06T00:38:49;6.07;;;3.60;;
18853;SDS011;9556;49.374;19.446;2023-08-06T00:41:16;5.43;;;3.70;;
18853;SDS011;9556;49.374;19.446;2023-08-06T00:43:44;4.55;;;3.78;;
18853;SDS011;9556;49.374;19.446;2023-08-06T00:46:12;6.25;;;4.13;;
18853;SDS011;9556;49.374;19.446;2023-08-06T00:48:40;5.22;;;3.75;;
18853;SDS011;9556;49.374;19.446;2023-08-06T00:51:08;6.80;;;3.95;;
18853;SDS011;9556;49.374;19.446;2023-08-06T00:53:35;5.65;;;3.97;;
18853;SDS011;9556;49.374;19.446;2023-08-06T00:56:02;4.78;;;3.67;;
18853;SDS011;9556;49.374;19.446;2023-08-06T00:58:30;4.00;;;3.40;;
18853;SDS011;9556;49.374;19.446;2023-08-06T01:00:57;4.38;;;3.78;;
18853;SDS011;9556;49.374;19.446;2023-08-06T01:03:26;4.22;;;3.50;;
18853;SDS011;9556;49.374;19.446;2023-08-06T01:05:53;5.20;;;3.80;;
18853;SDS011;9556;49.374;19.446;2023-08-06T01:08:23;4.78;;;3.67;;
18853;SDS011;9556;49.374;19.446;2023-08-06T01:10:59;4.35;;;3.33;;
18853;SDS011;9556;49.374;19.446;2023-08-06T01:13:30;6.03;;;3.53;;
18853;SDS011;9556;49.374;19.446;2023-08-06T01:15:58;4.80;;;3.78;;
18853;SDS011;9556;49.374;19.446;2023-08-06T01:18:28;3.83;;;3.42;;
18853;SDS011;9556;49.374;19.446;2023-08-06T01:20:57;4.90;;;3.60;;
18853;SDS011;9556;49.374;19.446;2023-08-06T01:23:24;5.18;;;3.70;;
18853;SDS011;9556;49.374;19.446;2023-08-06T01:25:53;4.55;;;3.60;;
18853;SDS011;9556;49.374;19.446;2023-08-06T01:28:23;4.75;;;3.63;;
18853;SDS011;9556;49.374;19.446;2023-08-06T01:30:54;5.22;;;3.58;;
18853;SDS011;9556;49.374;19.446;2023-08-06T01:33:22;4.13;;;3.20;;
18853;SDS011;9556;49.374;19.446;2023-08-06T01:35:49;4.35;;;3.90;;
18853;SDS011;9556;49.374;19.446;2023-08-06T01:38:19;3.75;;;2.92;;
18853;SDS011;9556;49.374;19.446;2023-08-06T01:40:46;3.92;;;3.30;;
18853;SDS011;9556;49.374;19.446;2023-08-06T01:43:14;6.53;;;3.55;;
18853;SDS011;9556;49.374;19.446;2023-08-06T01:45:41;4.35;;;3.60;;
18853;SDS011;9556;49.374;19.446;2023-08-06T01:48:08;4.65;;;3.70;;
18853;SDS011;9556;49.374;19.446;2023-08-06T01:50:35;3.78;;;3.35;;
18853;SDS011;9556;49.374;19.446;2023-08-06T01:53:02;4.95;;;3.45;;
18853;SDS011;9556;49.374;19.446;2023-08-06T01:55:30;5.25;;;3.42;;
18853;SDS011;9556;49.374;19.446;2023-08-06T01:57:58;3.85;;;3.35;;
18853;SDS011;9556;49.374;19.446;2023-08-06T02:00:25;5.18;;;3.53;;
18853;SDS011;9556;49.374;19.446;2023-08-06T02:02:52;4.93;;;3.60;;
18853;SDS011;9556;49.374;19.446;2023-08-06T02:05:20;4.07;;;3.30;;
18853;SDS011;9556;49.374;19.446;2023-08-06T02:07:47;4.13;;;3.63;;
18853;SDS011;9556;49.374;19.446;2023-08-06T02:10:14;4.95;;;3.90;;
18853;SDS011;9556;49.374;19.446;2023-08-06T02:12:43;4.22;;;3.60;;
18853;SDS011;9556;49.374;19.446;2023-08-06T02:15:10;6.80;;;3.53;;
18853;SDS011;9556;49.374;19.446;2023-08-06T02:17:37;3.90;;;3.50;;
18853;SDS011;9556;49.374;19.446;2023-08-06T02:20:05;4.03;;;3.63;;
18853;SDS011;9556;49.374;19.446;2023-08-06T02:22:32;4.90;;;3.45;;
18853;SDS011;9556;49.374;19.446;2023-08-06T02:24:59;4.57;;;3.65;;
18853;SDS011;9556;49.374;19.446;2023-08-06T02:27:26;4.75;;;3.40;;
18853;SDS011;9556;49.374;19.446;2023-08-06T02:29:55;3.95;;;3.50;;
18853;SDS011;9556;49.374;19.446;2023-08-06T02:32:22;5.05;;;4.07;;
18853;SDS011;9556;49.374;19.446;2023-08-06T02:34:49;3.72;;;3.20;;
18853;SDS011;9556;49.374;19.446;2023-08-06T02:37:16;4.20;;;3.40;;
18853;SDS011;9556;49.374;19.446;2023-08-06T02:39:43;4.20;;;3.40;;
18853;SDS011;9556;49.374;19.446;2023-08-06T02:42:11;4.32;;;3.60;;
18853;SDS011;9556;49.374;19.446;2023-08-06T02:44:38;4.88;;;3.80;;
18853;SDS011;9556;49.374;19.446;2023-08-06T02:47:07;6.00;;;3.45;;
18853;SDS011;9556;49.374;19.446;2023-08-06T02:49:34;4.28;;;3.47;;
18853;SDS011;9556;49.374;19.446;2023-08-06T02:52:01;4.18;;;3.63;;
18853;SDS011;9556;49.374;19.446;2023-08-06T02:54:28;3.90;;;3.38;;
18853;SDS011;9556;49.374;19.446;2023-08-06T02:56:56;5.25;;;3.33;;
18853;SDS011;9556;49.374;19.446;2023-08-06T02:59:23;3.92;;;3.10;;
18853;SDS011;9556;49.374;19.446;2023-08-06T03:01:50;3.88;;;3.30;;
18853;SDS011;9556;49.374;19.446;2023-08-06T03:04:19;5.53;;;3.60;;
18853;SDS011;9556;49.374;19.446;2023-08-06T03:06:46;4.57;;;3.75;;
18853;SDS011;9556;49.374;19.446;2023-08-06T03:09:13;4.38;;;3.50;;
18853;SDS011;9556;49.374;19.446;2023-08-06T03:11:40;4.95;;;3.58;;
18853;SDS011;9556;49.374;19.446;2023-08-06T03:14:07;5.70;;;3.83;;
18853;SDS011;9556;49.374;19.446;2023-08-06T03:16:34;5.60;;;3.90;;
18853;SDS011;9556;49.374;19.446;2023-08-06T03:19:02;4.38;;;3.60;;
18853;SDS011;9556;49.374;19.446;2023-08-06T03:21:30;7.97;;;4.30;;
18853;SDS011;9556;49.374;19.446;2023-08-06T03:23:57;5.32;;;3.75;;
18853;SDS011;9556;49.374;19.446;2023-08-06T03:26:24;5.72;;;4.25;;
18853;SDS011;9556;49.374;19.446;2023-08-06T03:28:52;7.10;;;3.90;;
18853;SDS011;9556;49.374;19.446;2023-08-06T03:31:19;5.68;;;4.20;;
18853;SDS011;9556;49.374;19.446;2023-08-06T03:33:46;5.45;;;3.67;;
18853;SDS011;9556;49.374;19.446;2023-08-06T03:36:13;4.85;;;4.07;;
18853;SDS011;9556;49.374;19.446;2023-08-06T03:38:42;4.85;;;3.78;;
18853;SDS011;9556;49.374;19.446;2023-08-06T03:41:09;5.68;;;4.43;;
18853;SDS011;9556;49.374;19.446;2023-08-06T03:43:36;5.07;;;4.25;;
18853;SDS011;9556;49.374;19.446;2023-08-06T03:46:03;5.22;;;4.07;;
18853;SDS011;9556;49.374;19.446;2023-08-06T03:48:30;4.85;;;3.92;;
18853;SDS011;9556;49.374;19.446;2023-08-06T03:50:57;5.45;;;4.30;;
18853;SDS011;9556;49.374;19.446;2023-08-06T03:53:26;5.63;;;4.25;;
18853;SDS011;9556;49.374;19.446;2023-08-06T03:55:55;6.25;;;4.00;;
18853;SDS011;9556;49.374;19.446;2023-08-06T03:58:25;5.50;;;4.00;;
18853;SDS011;9556;49.374;19.446;2023-08-06T04:00:57;4.63;;;4.00;;
18853;SDS011;9556;49.374;19.446;2023-08-06T04:03:24;4.32;;;3.90;;
18853;SDS011;9556;49.374;19.446;2023-08-06T04:05:51;5.40;;;3.90;;
18853;SDS011;9556;49.374;19.446;2023-08-06T04:08:18;4.22;;;3.83;;
18853;SDS011;9556;49.374;19.446;2023-08-06T04:10:48;6.20;;;4.20;;
18853;SDS011;9556;49.374;19.446;2023-08-06T04:13:17;4.95;;;4.20;;
18853;SDS011;9556;49.374;19.446;2023-08-06T04:15:44;4.43;;;3.85;;
18853;SDS011;9556;49.374;19.446;2023-08-06T04:18:12;5.07;;;3.63;;
18853;SDS011;9556;49.374;19.446;2023-08-06T04:20:42;4.90;;;3.90;;
18853;SDS011;9556;49.374;19.446;2023-08-06T04:23:09;4.75;;;3.83;;
18853;SDS011;9556;49.374;19.446;2023-08-06T04:25:37;4.38;;;3.67;;
18853;SDS011;9556;49.374;19.446;2023-08-06T04:28:04;3.97;;;3.53;;
18853;SDS011;9556;49.374;19.446;2023-08-06T04:30:32;5.05;;;3.88;;
18853;SDS011;9556;49.374;19.446;2023-08-06T04:33:00;3.90;;;3.50;;
18853;SDS011;9556;49.374;19.446;2023-08-06T04:35:27;3.85;;;3.38;;
18853;SDS011;9556;49.374;19.446;2023-08-06T04:37:54;4.20;;;3.38;;
18853;SDS011;9556;49.374;19.446;2023-08-06T04:40:21;3.50;;;3.20;;
18853;SDS011;9556;49.374;19.446;2023-08-06T04:42:48;4.10;;;3.40;;
18853;SDS011;9556;49.374;19.446;2023-08-06T04:45:15;3.60;;;3.28;;
18853;SDS011;9556;49.374;19.446;2023-08-06T04:47:44;3.92;;;3.13;;
18853;SDS011;9556;49.374;19.446;2023-08-06T04:50:11;4.13;;;3.17;;
18853;SDS011;9556;49.374;19.446;2023-08-06T04:52:38;3.50;;;3.17;;
18853;SDS011;9556;49.374;19.446;2023-08-06T04:55:06;6.07;;;3.30;;
18853;SDS011;9556;49.374;19.446;2023-08-06T04:57:33;4.07;;;3.25;;
18853;SDS011;9556;49.374;19.446;2023-08-06T05:00:00;4.03;;;3.40;;
18853;SDS011;9556;49.374;19.446;2023-08-06T05:02:27;4.03;;;3.63;;
18853;SDS011;9556;49.374;19.446;2023-08-06T05:04:56;4.90;;;3.72;;
18853;SDS011;9556;49.374;19.446;2023-08-06T05:07:23;4.85;;;3.63;;
18853;SDS011;9556;49.374;19.446;2023-08-06T05:09:51;4.40;;;3.25;;
18853;SDS011;9556;49.374;19.446;2023-08-06T05:12:18;6.03;;;3.97;;
18853;SDS011;9556;49.374;19.446;2023-08-06T05:14:46;5.55;;;3.47;;
18853;SDS011;9556;49.374;19.446;2023-08-06T05:17:13;4.68;;;3.60;;
18853;SDS011;9556;49.374;19.446;2023-08-06T05:19:40;4.80;;;3.60;;
18853;SDS011;9556;49.374;19.446;2023-08-06T05:22:08;4.43;;;3.40;;
18853;SDS011;9556;49.374;19.446;2023-08-06T05:24:36;4.50;;;3.13;;
18853;SDS011;9556;49.374;19.446;2023-08-06T05:27:03;3.85;;;3.45;;
18853;SDS011;9556;49.374;19.446;2023-08-06T05:29:30;4.25;;;3.42;;
18853;SDS011;9556;49.374;19.446;2023-08-06T05:31:57;5.35;;;3.60;;
18853;SDS011;9556;49.374;19.446;2023-08-06T05:34:24;4.47;;;3.30;;
18853;SDS011;9556;49.374;19.446;2023-08-06T05:36:52;4.03;;;3.15;;
18853;SDS011;9556;49.374;19.446;2023-08-06T05:39:20;3.80;;;3.40;;
18853;SDS011;9556;49.374;19.446;2023-08-06T05:41:47;4.28;;;3.33;;
18853;SDS011;9556;49.374;19.446;2023-08-06T05:44:15;4.78;;;3.33;;
18853;SDS011;9556;49.374;19.446;2023-08-06T05:46:42;4.22;;;3.28;;
18853;SDS011;9556;49.374;19.446;2023-08-06T05:49:09;3.72;;;2.88;;
18853;SDS011;9556;49.374;19.446;2023-08-06T05:51:38;3.50;;;3.15;;
18853;SDS011;9556;49.374;19.446;2023-08-06T05:54:05;4.60;;;3.58;;
18853;SDS011;9556;49.374;19.446;2023-08-06T05:56:34;4.10;;;3.60;;
18853;SDS011;9556;49.374;19.446;2023-08-06T05:59:01;4.00;;;3.40;;
18853;SDS011;9556;49.374;19.446;2023-08-06T06:01:28;3.70;;;3.17;;
18853;SDS011;9556;49.374;19.446;2023-08-06T06:03:55;4.10;;;3.17;;
18853;SDS011;9556;49.374;19.446;2023-08-06T06:06:22;3.20;;;2.83;;
18853;SDS011;9556;49.374;19.446;2023-08-06T06:08:49;4.10;;;3.08;;
18853;SDS011;9556;49.374;19.446;2023-08-06T06:11:16;3.75;;;3.30;;
18853;SDS011;9556;49.374;19.446;2023-08-06T06:13:48;4.80;;;3.42;;
18853;SDS011;9556;49.374;19.446;2023-08-06T06:16:16;4.93;;;3.80;;
18853;SDS011;9556;49.374;19.446;2023-08-06T06:18:43;4.00;;;3.10;;
18853;SDS011;9556;49.374;19.446;2023-08-06T06:21:10;3.88;;;2.80;;
18853;SDS011;9556;49.374;19.446;2023-08-06T06:23:37;3.10;;;2.40;;
18853;SDS011;9556;49.374;19.446;2023-08-06T06:26:04;4.50;;;2.30;;
18853;SDS011;9556;49.374;19.446;2023-08-06T06:28:31;2.88;;;2.42;;
18853;SDS011;9556;49.374;19.446;2023-08-06T06:31:01;2.78;;;2.17;;
18853;SDS011;9556;49.374;19.446;2023-08-06T06:33:28;2.90;;;2.45;;
18853;SDS011;9556;49.374;19.446;2023-08-06T06:35:56;2.65;;;2.20;;
18853;SDS011;9556;49.374;19.446;2023-08-06T06:38:23;2.72;;;2.30;;
18853;SDS011;9556;49.374;19.446;2023-08-06T06:40:53;3.10;;;2.40;;
18853;SDS011;9556;49.374;19.446;2023-08-06T06:43:20;2.53;;;2.05;;
18853;SDS011;9556;49.374;19.446;2023-08-06T06:45:51;3.00;;;2.20;;
18853;SDS011;9556;49.374;19.446;2023-08-06T06:48:20;2.97;;;2.22;;
18853;SDS011;9556;49.374;19.446;2023-08-06T06:50:47;4.68;;;2.50;;
18853;SDS011;9556;49.374;19.446;2023-08-06T06:53:14;2.92;;;2.17;;
18853;SDS011;9556;49.374;19.446;2023-08-06T06:55:42;3.10;;;2.10;;
18853;SDS011;9556;49.374;19.446;2023-08-06T06:58:09;3.10;;;2.30;;
18853;SDS011;9556;49.374;19.446;2023-08-06T07:00:36;2.97;;;2.08;;
18853;SDS011;9556;49.374;19.446;2023-08-06T07:03:03;2.92;;;1.95;;
18853;SDS011;9556;49.374;19.446;2023-08-06T07:05:32;4.05;;;1.92;;
18853;SDS011;9556;49.374;19.446;2023-08-06T07:07:59;4.18;;;2.25;;
18853;SDS011;9556;49.374;19.446;2023-08-06T07:10:26;3.92;;;2.10;;
18853;SDS011;9556;49.374;19.446;2023-08-06T07:12:54;3.38;;;2.20;;
18853;SDS011;9556;49.374;19.446;2023-08-06T07:15:21;2.75;;;2.05;;
18853;SDS011;9556;49.374;19.446;2023-08-06T07:17:48;3.33;;;2.40;;
18853;SDS011;9556;49.374;19.446;2023-08-06T07:20:15;2.65;;;2.05;;
18853;SDS011;9556;49.374;19.446;2023-08-06T07:22:44;4.57;;;1.90;;
18853;SDS011;9556;49.374;19.446;2023-08-06T07:25:11;4.47;;;2.20;;
18853;SDS011;9556;49.374;19.446;2023-08-06T07:27:38;3.15;;;2.20;;
18853;SDS011;9556;49.374;19.446;2023-08-06T07:30:06;2.85;;;2.28;;
18853;SDS011;9556;49.374;19.446;2023-08-06T07:32:33;3.30;;;2.10;;
18853;SDS011;9556;49.374;19.446;2023-08-06T07:35:00;3.22;;;2.00;;
18853;SDS011;9556;49.374;19.446;2023-08-06T07:37:28;3.33;;;1.90;;
18853;SDS011;9556;49.374;19.446;2023-08-06T07:39:56;4.20;;;2.10;;
18853;SDS011;9556;49.374;19.446;2023-08-06T07:42:23;2.17;;;1.90;;
18853;SDS011;9556;49.374;19.446;2023-08-06T07:44:51;2.55;;;1.80;;
18853;SDS011;9556;49.374;19.446;2023-08-06T07:47:18;3.55;;;2.13;;
18853;SDS011;9556;49.374;19.446;2023-08-06T07:49:46;2.60;;;1.75;;
18853;SDS011;9556;49.374;19.446;2023-08-06T07:52:13;2.65;;;1.90;;
18853;SDS011;9556;49.374;19.446;2023-08-06T07:54:40;2.15;;;1.88;;
18853;SDS011;9556;49.374;19.446;2023-08-06T07:57:09;2.20;;;1.80;;
18853;SDS011;9556;49.374;19.446;2023-08-06T07:59:36;3.85;;;1.90;;
18853;SDS011;9556;49.374;19.446;2023-08-06T08:02:03;3.17;;;2.00;;
18853;SDS011;9556;49.374;19.446;2023-08-06T08:04:30;3.03;;;1.85;;
18853;SDS011;9556;49.374;19.446;2023-08-06T08:06:58;3.08;;;2.03;;
18853;SDS011;9556;49.374;19.446;2023-08-06T08:09:25;3.10;;;2.20;;
18853;SDS011;9556;49.374;19.446;2023-08-06T08:11:52;2.35;;;1.90;;
18853;SDS011;9556;49.374;19.446;2023-08-06T08:14:21;3.75;;;2.10;;
18853;SDS011;9556;49.374;19.446;2023-08-06T08:16:48;2.42;;;1.88;;
18853;SDS011;9556;49.374;19.446;2023-08-06T08:19:15;3.08;;;2.00;;
18853;SDS011;9556;49.374;19.446;2023-08-06T08:21:42;3.45;;;2.20;;
18853;SDS011;9556;49.374;19.446;2023-08-06T08:24:10;3.28;;;1.92;;
18853;SDS011;9556;49.374;19.446;2023-08-06T08:26:37;3.35;;;2.00;;
18853;SDS011;9556;49.374;19.446;2023-08-06T08:29:04;2.55;;;2.00;;
18853;SDS011;9556;49.374;19.446;2023-08-06T08:31:32;8.75;;;3.13;;
18853;SDS011;9556;49.374;19.446;2023-08-06T08:34:04;17.33;;;4.90;;
18853;SDS011;9556;49.374;19.446;2023-08-06T08:36:31;14.23;;;3.88;;
18853;SDS011;9556;49.374;19.446;2023-08-06T08:38:58;15.93;;;4.13;;
18853;SDS011;9556;49.374;19.446;2023-08-06T08:41:27;14.70;;;3.67;;
18853;SDS011;9556;49.374;19.446;2023-08-06T08:43:55;11.00;;;3.53;;
18853;SDS011;9556;49.374;19.446;2023-08-06T08:46:22;11.43;;;3.33;;
18853;SDS011;9556;49.374;19.446;2023-08-06T08:48:51;7.03;;;2.95;;
18853;SDS011;9556;49.374;19.446;2023-08-06T08:51:18;13.60;;;4.00;;
18853;SDS011;9556;49.374;19.446;2023-08-06T08:53:46;10.77;;;3.70;;
18853;SDS011;9556;49.374;19.446;2023-08-06T08:56:14;14.88;;;4.60;;
18853;SDS011;9556;49.374;19.446;2023-08-06T08:58:41;13.85;;;4.80;;
18853;SDS011;9556;49.374;19.446;2023-08-06T09:01:08;9.18;;;4.10;;
18853;SDS011;9556;49.374;19.446;2023-08-06T09:03:36;10.68;;;3.95;;
18853;SDS011;9556;49.374;19.446;2023-08-06T09:06:05;9.52;;;3.53;;
18853;SDS011;9556;49.374;19.446;2023-08-06T09:08:34;8.60;;;3.22;;
18853;SDS011;9556;49.374;19.446;2023-08-06T09:11:01;9.00;;;3.53;;
18853;SDS011;9556;49.374;19.446;2023-08-06T09:13:29;9.68;;;4.00;;
18853;SDS011;9556;49.374;19.446;2023-08-06T09:15:57;11.82;;;3.55;;
18853;SDS011;9556;49.374;19.446;2023-08-06T09:18:27;10.90;;;3.65;;
18853;SDS011;9556;49.374;19.446;2023-08-06T09:20:55;9.07;;;3.33;;
18853;SDS011;9556;49.374;19.446;2023-08-06T09:23:26;11.85;;;3.75;;
18853;SDS011;9556;49.374;19.446;2023-08-06T09:25:54;11.02;;;3.55;;
18853;SDS011;9556;49.374;19.446;2023-08-06T09:28:21;7.35;;;3.13;;
18853;SDS011;9556;49.374;19.446;2023-08-06T09:30:50;12.15;;;3.75;;
18853;SDS011;9556;49.374;19.446;2023-08-06T09:33:17;11.98;;;3.50;;
18853;SDS011;9556;49.374;19.446;2023-08-06T09:35:45;6.40;;;3.20;;
18853;SDS011;9556;49.374;19.446;2023-08-06T09:38:12;7.45;;;3.58;;
18853;SDS011;9556;49.374;19.446;2023-08-06T09:40:41;6.53;;;3.97;;
18853;SDS011;9556;49.374;19.446;2023-08-06T09:43:08;7.15;;;4.28;;
18853;SDS011;9556;49.374;19.446;2023-08-06T09:45:36;7.50;;;5.22;;
18853;SDS011;9556;49.374;19.446;2023-08-06T09:48:03;8.25;;;4.78;;
18853;SDS011;9556;49.374;19.446;2023-08-06T09:50:31;7.22;;;4.40;;
18853;SDS011;9556;49.374;19.446;2023-08-06T09:53:01;11.80;;;4.68;;
18853;SDS011;9556;49.374;19.446;2023-08-06T09:55:29;8.25;;;4.00;;
18853;SDS011;9556;49.374;19.446;2023-08-06T09:57:57;12.32;;;4.78;;
18853;SDS011;9556;49.374;19.446;2023-08-06T10:00:25;7.10;;;3.92;;
18853;SDS011;9556;49.374;19.446;2023-08-06T10:02:53;8.05;;;3.95;;
18853;SDS011;9556;49.374;19.446;2023-08-06T10:05:21;7.25;;;4.10;;
18853;SDS011;9556;49.374;19.446;2023-08-06T10:07:48;8.60;;;4.05;;
18853;SDS011;9556;49.374;19.446;2023-08-06T10:10:17;8.15;;;4.03;;
18853;SDS011;9556;49.374;19.446;2023-08-06T10:12:46;5.97;;;3.30;;
18853;SDS011;9556;49.374;19.446;2023-08-06T10:15:17;9.73;;;3.40;;
18853;SDS011;9556;49.374;19.446;2023-08-06T10:17:48;8.40;;;3.33;;
18853;SDS011;9556;49.374;19.446;2023-08-06T10:20:17;6.32;;;2.90;;
18853;SDS011;9556;49.374;19.446;2023-08-06T10:22:46;5.25;;;3.15;;
18853;SDS011;9556;49.374;19.446;2023-08-06T10:25:18;5.68;;;3.22;;
18853;SDS011;9556;49.374;19.446;2023-08-06T10:27:54;5.82;;;2.97;;
18853;SDS011;9556;49.374;19.446;2023-08-06T10:30:23;4.32;;;2.60;;
18853;SDS011;9556;49.374;19.446;2023-08-06T10:32:52;4.05;;;2.40;;
18853;SDS011;9556;49.374;19.446;2023-08-06T10:35:29;9.18;;;2.90;;
18853;SDS011;9556;49.374;19.446;2023-08-06T10:38:00;4.43;;;1.90;;
18853;SDS011;9556;49.374;19.446;2023-08-06T10:40:29;5.45;;;2.40;;
18853;SDS011;9556;49.374;19.446;2023-08-06T10:42:58;5.43;;;2.13;;
18853;SDS011;9556;49.374;19.446;2023-08-06T10:45:27;5.18;;;2.50;;
18853;SDS011;9556;49.374;19.446;2023-08-06T10:47:55;7.45;;;2.40;;
18853;SDS011;9556;49.374;19.446;2023-08-06T10:50:23;5.78;;;2.20;;
18853;SDS011;9556;49.374;19.446;2023-08-06T10:52:50;4.97;;;2.30;;
18853;SDS011;9556;49.374;19.446;2023-08-06T10:55:24;6.72;;;1.85;;
18853;SDS011;9556;49.374;19.446;2023-08-06T10:57:52;4.20;;;1.77;;
18853;SDS011;9556;49.374;19.446;2023-08-06T11:00:20;3.05;;;1.60;;
18853;SDS011;9556;49.374;19.446;2023-08-06T11:02:49;3.45;;;1.52;;
18853;SDS011;9556;49.374;19.446;2023-08-06T11:05:16;4.72;;;1.83;;
18853;SDS011;9556;49.374;19.446;2023-08-06T11:07:45;3.50;;;1.65;;
18853;SDS011;9556;49.374;19.446;2023-08-06T11:10:13;3.67;;;1.50;;
18853;SDS011;9556;49.374;19.446;2023-08-06T11:12:40;4.32;;;1.40;;
18853;SDS011;9556;49.374;19.446;2023-08-06T11:15:08;2.80;;;1.50;;
18853;SDS011;9556;49.374;19.446;2023-08-06T11:17:36;1.67;;;1.20;;
18853;SDS011;9556;49.374;19.446;2023-08-06T11:20:05;2.08;;;1.30;;
18853;SDS011;9556;49.374;19.446;2023-08-06T11:22:33;3.92;;;1.30;;
18853;SDS011;9556;49.374;19.446;2023-08-06T11:25:00;3.47;;;1.58;;
18853;SDS011;9556;49.374;19.446;2023-08-06T11:27:27;2.13;;;1.27;;
18853;SDS011;9556;49.374;19.446;2023-08-06T11:29:55;2.45;;;1.20;;
18853;SDS011;9556;49.374;19.446;2023-08-06T11:32:22;3.10;;;1.30;;
18853;SDS011;9556;49.374;19.446;2023-08-06T11:34:53;2.53;;;1.15;;
18853;SDS011;9556;49.374;19.446;2023-08-06T11:37:22;1.98;;;1.17;;
18853;SDS011;9556;49.374;19.446;2023-08-06T11:39:50;2.97;;;1.25;;
18853;SDS011;9556;49.374;19.446;2023-08-06T11:42:18;2.58;;;1.25;;
18853;SDS011;9556;49.374;19.446;2023-08-06T11:44:45;2.42;;;1.08;;
18853;SDS011;9556;49.374;19.446;2023-08-06T11:47:13;1.15;;;0.90;;
18853;SDS011;9556;49.374;19.446;2023-08-06T11:49:41;1.20;;;0.98;;
18853;SDS011;9556;49.374;19.446;2023-08-06T11:52:19;2.17;;;1.05;;
18853;SDS011;9556;49.374;19.446;2023-08-06T11:54:59;1.52;;;0.80;;
18853;SDS011;9556;49.374;19.446;2023-08-06T11:57:28;2.30;;;1.23;;
18853;SDS011;9556;49.374;19.446;2023-08-06T11:59:58;3.45;;;1.20;;
18853;SDS011;9556;49.374;19.446;2023-08-06T12:02:25;1.27;;;0.80;;
18853;SDS011;9556;49.374;19.446;2023-08-06T12:04:58;1.65;;;0.90;;
18853;SDS011;9556;49.374;19.446;2023-08-06T12:07:26;1.48;;;1.00;;
18853;SDS011;9556;49.374;19.446;2023-08-06T12:09:54;1.30;;;1.00;;
18853;SDS011;9556;49.374;19.446;2023-08-06T12:12:22;0.70;;;0.70;;
18853;SDS011;9556;49.374;19.446;2023-08-06T12:14:49;1.67;;;1.02;;
18853;SDS011;9556;49.374;19.446;2023-08-06T12:17:16;1.38;;;0.90;;
18853;SDS011;9556;49.374;19.446;2023-08-06T12:19:44;1.90;;;0.98;;
18853;SDS011;9556;49.374;19.446;2023-08-06T12:22:12;3.08;;;1.05;;
18853;SDS011;9556;49.374;19.446;2023-08-06T12:24:40;1.10;;;0.80;;
18853;SDS011;9556;49.374;19.446;2023-08-06T12:27:08;2.47;;;1.00;;
18853;SDS011;9556;49.374;19.446;2023-08-06T12:29:36;3.10;;;0.90;;
18853;SDS011;9556;49.374;19.446;2023-08-06T12:32:04;7.68;;;1.45;;
18853;SDS011;9556;49.374;19.446;2023-08-06T12:34:31;8.10;;;1.50;;
18853;SDS011;9556;49.374;19.446;2023-08-06T12:36:59;4.25;;;1.15;;
18853;SDS011;9556;49.374;19.446;2023-08-06T12:39:26;2.65;;;1.10;;
18853;SDS011;9556;49.374;19.446;2023-08-06T12:41:54;2.65;;;0.90;;
18853;SDS011;9556;49.374;19.446;2023-08-06T12:44:24;1.50;;;0.75;;
18853;SDS011;9556;49.374;19.446;2023-08-06T12:46:51;2.35;;;0.98;;
18853;SDS011;9556;49.374;19.446;2023-08-06T12:49:18;1.60;;;0.98;;
18853;SDS011;9556;49.374;19.446;2023-08-06T12:51:47;3.58;;;0.80;;
18853;SDS011;9556;49.374;19.446;2023-08-06T12:54:14;2.75;;;0.93;;
18853;SDS011;9556;49.374;19.446;2023-08-06T12:56:41;2.42;;;0.85;;
18853;SDS011;9556;49.374;19.446;2023-08-06T12:59:08;2.05;;;0.88;;
18853;SDS011;9556;49.374;19.446;2023-08-06T13:01:38;2.53;;;0.93;;
18853;SDS011;9556;49.374;19.446;2023-08-06T13:04:05;1.77;;;0.82;;
18853;SDS011;9556;49.374;19.446;2023-08-06T13:06:32;3.53;;;1.05;;
18853;SDS011;9556;49.374;19.446;2023-08-06T13:09:01;1.42;;;0.90;;
18853;SDS011;9556;49.374;19.446;2023-08-06T13:11:29;2.97;;;0.70;;
18853;SDS011;9556;49.374;19.446;2023-08-06T13:13:58;2.75;;;0.82;;
18853;SDS011;9556;49.374;19.446;2023-08-06T13:16:25;3.95;;;1.10;;
18853;SDS011;9556;49.374;19.446;2023-08-06T13:18:55;2.30;;;1.10;;
18853;SDS011;9556;49.374;19.446;2023-08-06T13:21:22;1.35;;;0.70;;
18853;SDS011;9556;49.374;19.446;2023-08-06T13:23:49;1.92;;;0.80;;
18853;SDS011;9556;49.374;19.446;2023-08-06T13:26:17;2.15;;;0.80;;
18853;SDS011;9556;49.374;19.446;2023-08-06T13:28:44;2.22;;;0.80;;
18853;SDS011;9556;49.374;19.446;2023-08-06T13:31:11;1.38;;;0.60;;
18853;SDS011;9556;49.374;19.446;2023-08-06T13:33:38;2.50;;;0.90;;
18853;SDS011;9556;49.374;19.446;2023-08-06T13:36:07;1.30;;;0.70;;
18853;SDS011;9556;49.374;19.446;2023-08-06T13:38:34;1.48;;;0.70;;
18853;SDS011;9556;49.374;19.446;2023-08-06T13:41:01;2.00;;;0.70;;
18853;SDS011;9556;49.374;19.446;2023-08-06T13:43:29;2.92;;;0.70;;
18853;SDS011;9556;49.374;19.446;2023-08-06T13:45:56;1.60;;;0.73;;
18853;SDS011;9556;49.374;19.446;2023-08-06T13:48:23;1.50;;;0.80;;
18853;SDS011;9556;49.374;19.446;2023-08-06T13:50:50;1.63;;;0.60;;
18853;SDS011;9556;49.374;19.446;2023-08-06T13:53:19;1.50;;;0.60;;
18853;SDS011;9556;49.374;19.446;2023-08-06T13:55:46;1.58;;;0.77;;
18853;SDS011;9556;49.374;19.446;2023-08-06T13:58:13;1.33;;;0.60;;
18853;SDS011;9556;49.374;19.446;2023-08-06T14:00:40;2.53;;;0.90;;
18853;SDS011;9556;49.374;19.446;2023-08-06T14:03:07;1.90;;;0.63;;
18853;SDS011;9556;49.374;19.446;2023-08-06T14:05:34;1.25;;;0.68;;
18853;SDS011;9556;49.374;19.446;2023-08-06T14:08:01;1.10;;;0.70;;
18853;SDS011;9556;49.374;19.446;2023-08-06T14:10:30;0.90;;;0.60;;
18853;SDS011;9556;49.374;19.446;2023-08-06T14:12:57;1.40;;;0.70;;
18853;SDS011;9556;49.374;19.446;2023-08-06T14:15:24;0.70;;;0.60;;
18853;SDS011;9556;49.374;19.446;2023-08-06T14:17:51;2.25;;;0.70;;
18853;SDS011;9556;49.374;19.446;2023-08-06T14:20:19;1.50;;;0.73;;
18853;SDS011;9556;49.374;19.446;2023-08-06T14:22:46;1.77;;;0.63;;
18853;SDS011;9556;49.374;19.446;2023-08-06T14:25:13;3.53;;;0.73;;
18853;SDS011;9556;49.374;19.446;2023-08-06T14:27:41;1.92;;;0.70;;
18853;SDS011;9556;49.374;19.446;2023-08-06T14:30:09;1.17;;;0.65;;
18853;SDS011;9556;49.374;19.446;2023-08-06T14:32:36;1.38;;;0.60;;
18853;SDS011;9556;49.374;19.446;2023-08-06T14:35:04;1.52;;;0.57;;
18853;SDS011;9556;49.374;19.446;2023-08-06T14:37:31;2.20;;;0.68;;
18853;SDS011;9556;49.374;19.446;2023-08-06T14:39:58;2.03;;;0.60;;
18853;SDS011;9556;49.374;19.446;2023-08-06T14:42:25;1.65;;;0.60;;
18853;SDS011;9556;49.374;19.446;2023-08-06T14:44:54;2.97;;;0.70;;
18853;SDS011;9556;49.374;19.446;2023-08-06T14:47:21;1.38;;;0.70;;
18853;SDS011;9556;49.374;19.446;2023-08-06T14:49:48;0.73;;;0.68;;
18853;SDS011;9556;49.374;19.446;2023-08-06T14:52:18;0.73;;;0.50;;